sensor_id;sensor_type;location;lat;lon;timestamp;pressure;altitude;pressure_sealevel;temperature;humidity
52185;BME280;38160;52.876;18.778;2023-01-29T00:01:41;101739.75;;;-1.27;87.60
52185;BME280;38160;52.876;18.778;2023-01-29T00:04:18;101735.86;;;-1.26;87.84
52185;BME280;38160;52.876;18.778;2023-01-29T00:06:54;101732.09;;;-1.24;87.88
52185;BME280;38160;52.876;18.778;2023-01-29T00:09:30;101731.73;;;-1.25;87.92
52185;BME280;38160;52.876;18.778;2023-01-29T00:12:07;101739.83;;;-1.24;87.95
52185;BME280;38160;52.876;18.778;2023-01-29T00:14:43;101737.23;;;-1.25;88.05
52185;BME280;38160;52.876;18.778;2023-01-29T00:17:19;101737.73;;;-1.25;87.99
52185;BME280;38160;52.876;18.778;2023-01-29T00:19:56;101731.36;;;-1.24;87.98
52185;BME280;38160;52.876;18.778;2023-01-29T00:22:32;101732.80;;;-1.25;88.04
52185;BME280;38160;52.876;18.778;2023-01-29T00:25:09;101723.36;;;-1.27;88.11
52185;BME280;38160;52.876;18.778;2023-01-29T00:31:27;101716.57;;;-1.30;88.32
52185;BME280;38160;52.876;18.778;2023-01-29T00:34:04;101710.63;;;-1.31;88.38
52185;BME280;38160;52.876;18.778;2023-01-29T00:36:42;101709.82;;;-1.33;88.47
52185;BME280;38160;52.876;18.778;2023-01-29T00:39:21;101704.21;;;-1.34;88.43
52185;BME280;38160;52.876;18.778;2023-01-29T00:42:42;101688.21;;;-1.44;88.43
52185;BME280;38160;52.876;18.778;2023-01-29T00:45:36;101692.99;;;-1.44;88.43
52185;BME280;38160;52.876;18.778;2023-01-29T00:48:13;101688.92;;;-1.49;88.58
52185;BME280;38160;52.876;18.778;2023-01-29T00:50:49;101689.23;;;-1.53;88.58
52185;BME280;38160;52.876;18.778;2023-01-29T00:53:26;101686.80;;;-1.57;88.69
52185;BME280;38160;52.876;18.778;2023-01-29T00:56:05;101687.21;;;-1.64;88.72
52185;BME280;38160;52.876;18.778;2023-01-29T00:58:42;101685.15;;;-1.70;88.89
52185;BME280;38160;52.876;18.778;2023-01-29T01:01:19;101682.13;;;-1.74;88.82
52185;BME280;38160;52.876;18.778;2023-01-29T01:04:16;101681.85;;;-1.80;89.14
52185;BME280;38160;52.876;18.778;2023-01-29T01:06:52;101681.85;;;-1.85;89.19
52185;BME280;38160;52.876;18.778;2023-01-29T01:09:28;101680.77;;;-1.89;89.21
52185;BME280;38160;52.876;18.778;2023-01-29T01:12:24;101671.06;;;-1.93;89.22
52185;BME280;38160;52.876;18.778;2023-01-29T01:15:01;101671.52;;;-1.96;89.26
52185;BME280;38160;52.876;18.778;2023-01-29T01:17:37;101682.19;;;-1.98;89.33
52185;BME280;38160;52.876;18.778;2023-01-29T01:20:15;101687.91;;;-2.00;89.53
52185;BME280;38160;52.876;18.778;2023-01-29T01:30:15;101690.02;;;-2.09;89.68
52185;BME280;38160;52.876;18.778;2023-01-29T01:32:53;101690.60;;;-2.11;89.72
52185;BME280;38160;52.876;18.778;2023-01-29T01:35:32;101694.55;;;-2.13;89.88
52185;BME280;38160;52.876;18.778;2023-01-29T01:38:11;101697.37;;;-2.13;89.92
52185;BME280;38160;52.876;18.778;2023-01-29T01:40:48;101700.53;;;-2.13;89.83
52185;BME280;38160;52.876;18.778;2023-01-29T01:43:27;101696.48;;;-2.13;89.92
52185;BME280;38160;52.876;18.778;2023-01-29T01:46:05;101700.27;;;-2.10;89.84
52185;BME280;38160;52.876;18.778;2023-01-29T01:52:40;101686.84;;;-2.09;90.13
52185;BME280;38160;52.876;18.778;2023-01-29T02:02:48;101671.95;;;-2.17;90.30
52185;BME280;38160;52.876;18.778;2023-01-29T02:05:42;101673.61;;;-2.19;90.45
52185;BME280;38160;52.876;18.778;2023-01-29T02:08:43;101682.71;;;-2.22;90.42
52185;BME280;38160;52.876;18.778;2023-01-29T02:11:39;101695.98;;;-2.23;90.37
52185;BME280;38160;52.876;18.778;2023-01-29T02:14:16;101694.91;;;-2.22;90.44
52185;BME280;38160;52.876;18.778;2023-01-29T02:16:53;101684.44;;;-2.20;90.51
52185;BME280;38160;52.876;18.778;2023-01-29T02:19:38;101685.31;;;-2.16;90.47
52185;BME280;38160;52.876;18.778;2023-01-29T02:22:45;101682.02;;;-2.12;90.60
52185;BME280;38160;52.876;18.778;2023-01-29T02:28:45;101670.98;;;-2.04;90.64
52185;BME280;38160;52.876;18.778;2023-01-29T02:31:28;101674.86;;;-2.00;90.60
52185;BME280;38160;52.876;18.778;2023-01-29T02:34:13;101669.04;;;-1.95;90.32
52185;BME280;38160;52.876;18.778;2023-01-29T02:37:00;101665.28;;;-1.94;90.32
52185;BME280;38160;52.876;18.778;2023-01-29T02:39:47;101659.88;;;-1.91;90.38
52185;BME280;38160;52.876;18.778;2023-01-29T02:42:29;101658.38;;;-1.89;90.31
52185;BME280;38160;52.876;18.778;2023-01-29T02:45:12;101661.40;;;-1.85;90.15
52185;BME280;38160;52.876;18.778;2023-01-29T02:47:56;101661.29;;;-1.82;90.16
52185;BME280;38160;52.876;18.778;2023-01-29T02:50:40;101658.36;;;-1.79;90.07
52185;BME280;38160;52.876;18.778;2023-01-29T02:53:23;101649.57;;;-1.76;90.07
52185;BME280;38160;52.876;18.778;2023-01-29T02:56:06;101646.79;;;-1.72;90.15
52185;BME280;38160;52.876;18.778;2023-01-29T02:58:46;101638.36;;;-1.69;89.97
52185;BME280;38160;52.876;18.778;2023-01-29T03:01:32;101636.46;;;-1.65;90.23
52185;BME280;38160;52.876;18.778;2023-01-29T03:04:13;101635.83;;;-1.62;90.08
52185;BME280;38160;52.876;18.778;2023-01-29T03:06:57;101620.56;;;-1.60;89.79
52185;BME280;38160;52.876;18.778;2023-01-29T03:09:40;101619.54;;;-1.57;89.73
52185;BME280;38160;52.876;18.778;2023-01-29T03:12:21;101617.21;;;-1.56;89.89
52185;BME280;38160;52.876;18.778;2023-01-29T03:15:12;101615.38;;;-1.54;89.91
52185;BME280;38160;52.876;18.778;2023-01-29T03:17:59;101617.25;;;-1.53;89.96
52185;BME280;38160;52.876;18.778;2023-01-29T03:20:41;101612.46;;;-1.53;89.85
52185;BME280;38160;52.876;18.778;2023-01-29T03:23:24;101609.08;;;-1.52;89.95
52185;BME280;38160;52.876;18.778;2023-01-29T03:26:19;101600.23;;;-1.51;89.68
52185;BME280;38160;52.876;18.778;2023-01-29T03:29:14;101598.92;;;-1.49;89.93
52185;BME280;38160;52.876;18.778;2023-01-29T03:32:08;101610.52;;;-1.48;89.83
52185;BME280;38160;52.876;18.778;2023-01-29T03:34:48;101608.42;;;-1.48;89.75
52185;BME280;38160;52.876;18.778;2023-01-29T03:37:28;101601.06;;;-1.45;89.86
52185;BME280;38160;52.876;18.778;2023-01-29T03:40:09;101590.02;;;-1.43;89.85
52185;BME280;38160;52.876;18.778;2023-01-29T03:42:58;101581.15;;;-1.41;89.97
52185;BME280;38160;52.876;18.778;2023-01-29T03:45:49;101566.63;;;-1.41;89.77
52185;BME280;38160;52.876;18.778;2023-01-29T03:48:33;101576.10;;;-1.39;89.90
52185;BME280;38160;52.876;18.778;2023-01-29T03:51:18;101572.67;;;-1.37;89.96
52185;BME280;38160;52.876;18.778;2023-01-29T03:54:04;101568.23;;;-1.37;89.88
52185;BME280;38160;52.876;18.778;2023-01-29T03:56:54;101561.12;;;-1.36;89.84
52185;BME280;38160;52.876;18.778;2023-01-29T03:59:37;101550.70;;;-1.35;89.86
52185;BME280;38160;52.876;18.778;2023-01-29T04:02:45;101551.23;;;-1.36;89.79
52185;BME280;38160;52.876;18.778;2023-01-29T04:05:26;101550.33;;;-1.35;89.94
52185;BME280;38160;52.876;18.778;2023-01-29T04:08:16;101552.91;;;-1.34;89.67
52185;BME280;38160;52.876;18.778;2023-01-29T04:10:58;101548.54;;;-1.35;89.80
52185;BME280;38160;52.876;18.778;2023-01-29T04:13:36;101551.27;;;-1.32;89.69
52185;BME280;38160;52.876;18.778;2023-01-29T04:16:18;101556.63;;;-1.34;89.77
52185;BME280;38160;52.876;18.778;2023-01-29T04:19:22;101550.36;;;-1.32;89.82
52185;BME280;38160;52.876;18.778;2023-01-29T04:22:03;101548.66;;;-1.29;89.80
52185;BME280;38160;52.876;18.778;2023-01-29T04:24:41;101544.20;;;-1.28;89.92
52185;BME280;38160;52.876;18.778;2023-01-29T04:27:25;101543.09;;;-1.27;89.82
52185;BME280;38160;52.876;18.778;2023-01-29T04:30:10;101542.58;;;-1.27;89.79
52185;BME280;38160;52.876;18.778;2023-01-29T04:33:02;101538.45;;;-1.26;89.94
52185;BME280;38160;52.876;18.778;2023-01-29T04:35:48;101535.59;;;-1.25;90.00
52185;BME280;38160;52.876;18.778;2023-01-29T04:38:38;101530.55;;;-1.27;90.09
52185;BME280;38160;52.876;18.778;2023-01-29T04:41:23;101529.98;;;-1.26;89.99
52185;BME280;38160;52.876;18.778;2023-01-29T04:44:04;101524.85;;;-1.26;89.96
52185;BME280;38160;52.876;18.778;2023-01-29T04:46:48;101524.78;;;-1.24;89.87
52185;BME280;38160;52.876;18.778;2023-01-29T04:49:34;101523.39;;;-1.24;89.91
52185;BME280;38160;52.876;18.778;2023-01-29T04:52:19;101519.69;;;-1.25;89.83
52185;BME280;38160;52.876;18.778;2023-01-29T04:55:02;101511.38;;;-1.24;89.91
52185;BME280;38160;52.876;18.778;2023-01-29T04:57:46;101501.53;;;-1.26;89.86
52185;BME280;38160;52.876;18.778;2023-01-29T05:00:28;101505.23;;;-1.26;89.81
52185;BME280;38160;52.876;18.778;2023-01-29T05:03:07;101500.16;;;-1.26;89.98
52185;BME280;38160;52.876;18.778;2023-01-29T05:05:47;101501.35;;;-1.25;89.82
52185;BME280;38160;52.876;18.778;2023-01-29T05:08:24;101498.86;;;-1.25;89.95
52185;BME280;38160;52.876;18.778;2023-01-29T05:11:02;101495.11;;;-1.24;89.84
52185;BME280;38160;52.876;18.778;2023-01-29T05:13:39;101494.70;;;-1.23;89.99
52185;BME280;38160;52.876;18.778;2023-01-29T05:16:20;101488.33;;;-1.22;89.91
52185;BME280;38160;52.876;18.778;2023-01-29T05:18:57;101483.35;;;-1.21;89.81
52185;BME280;38160;52.876;18.778;2023-01-29T05:21:33;101485.82;;;-1.21;89.83
52185;BME280;38160;52.876;18.778;2023-01-29T05:24:11;101489.36;;;-1.21;90.03
52185;BME280;38160;52.876;18.778;2023-01-29T05:26:50;101485.64;;;-1.22;89.99
52185;BME280;38160;52.876;18.778;2023-01-29T05:29:45;101480.02;;;-1.22;90.07
52185;BME280;38160;52.876;18.778;2023-01-29T05:32:22;101475.77;;;-1.26;89.95
52185;BME280;38160;52.876;18.778;2023-01-29T05:34:58;101489.77;;;-1.23;90.21
52185;BME280;38160;52.876;18.778;2023-01-29T05:37:34;101493.91;;;-1.21;90.17
52185;BME280;38160;52.876;18.778;2023-01-29T05:40:11;101487.85;;;-1.19;90.24
52185;BME280;38160;52.876;18.778;2023-01-29T05:42:47;101476.04;;;-1.20;90.26
52185;BME280;38160;52.876;18.778;2023-01-29T05:45:25;101473.06;;;-1.20;90.42
52185;BME280;38160;52.876;18.778;2023-01-29T05:48:02;101464.50;;;-1.22;90.35
52185;BME280;38160;52.876;18.778;2023-01-29T05:50:38;101461.91;;;-1.24;90.66
52185;BME280;38160;52.876;18.778;2023-01-29T05:53:14;101463.91;;;-1.25;90.57
52185;BME280;38160;52.876;18.778;2023-01-29T05:55:50;101461.27;;;-1.25;90.94
52185;BME280;38160;52.876;18.778;2023-01-29T05:58:26;101465.88;;;-1.26;90.95
52185;BME280;38160;52.876;18.778;2023-01-29T06:01:12;101463.77;;;-1.26;91.04
52185;BME280;38160;52.876;18.778;2023-01-29T06:03:50;101468.27;;;-1.28;91.22
52185;BME280;38160;52.876;18.778;2023-01-29T06:06:27;101472.35;;;-1.28;91.39
52185;BME280;38160;52.876;18.778;2023-01-29T06:09:03;101474.65;;;-1.29;91.62
52185;BME280;38160;52.876;18.778;2023-01-29T06:11:39;101486.85;;;-1.28;91.62
52185;BME280;38160;52.876;18.778;2023-01-29T06:14:15;101490.33;;;-1.28;91.68
52185;BME280;38160;52.876;18.778;2023-01-29T06:16:51;101496.91;;;-1.29;91.95
52185;BME280;38160;52.876;18.778;2023-01-29T06:19:28;101496.92;;;-1.29;92.12
52185;BME280;38160;52.876;18.778;2023-01-29T06:22:04;101504.40;;;-1.30;92.36
52185;BME280;38160;52.876;18.778;2023-01-29T06:24:41;101519.11;;;-1.32;92.61
52185;BME280;38160;52.876;18.778;2023-01-29T06:27:17;101531.30;;;-1.32;92.83
52185;BME280;38160;52.876;18.778;2023-01-29T06:29:54;101534.31;;;-1.32;92.96
52185;BME280;38160;52.876;18.778;2023-01-29T06:32:30;101533.47;;;-1.33;93.45
52185;BME280;38160;52.876;18.778;2023-01-29T06:35:08;101534.92;;;-1.34;93.88
52185;BME280;38160;52.876;18.778;2023-01-29T06:37:44;101531.50;;;-1.33;94.44
52185;BME280;38160;52.876;18.778;2023-01-29T06:40:22;101533.52;;;-1.30;94.70
52185;BME280;38160;52.876;18.778;2023-01-29T06:43:00;101533.95;;;-1.32;94.64
52185;BME280;38160;52.876;18.778;2023-01-29T06:45:36;101527.64;;;-1.33;94.64
52185;BME280;38160;52.876;18.778;2023-01-29T06:48:12;101518.31;;;-1.34;94.66
52185;BME280;38160;52.876;18.778;2023-01-29T06:50:48;101513.66;;;-1.36;94.68
52185;BME280;38160;52.876;18.778;2023-01-29T06:53:24;101521.80;;;-1.37;95.05
52185;BME280;38160;52.876;18.778;2023-01-29T06:56:01;101529.96;;;-1.38;95.27
52185;BME280;38160;52.876;18.778;2023-01-29T06:58:38;101533.77;;;-1.40;95.38
52185;BME280;38160;52.876;18.778;2023-01-29T07:01:15;101529.15;;;-1.39;95.40
52185;BME280;38160;52.876;18.778;2023-01-29T07:03:51;101525.75;;;-1.38;95.24
52185;BME280;38160;52.876;18.778;2023-01-29T07:06:32;101531.35;;;-1.37;95.34
52185;BME280;38160;52.876;18.778;2023-01-29T07:09:10;101522.11;;;-1.40;95.64
52185;BME280;38160;52.876;18.778;2023-01-29T07:11:48;101519.40;;;-1.34;95.74
52185;BME280;38160;52.876;18.778;2023-01-29T07:14:26;101508.84;;;-1.31;95.68
52185;BME280;38160;52.876;18.778;2023-01-29T07:17:02;101510.68;;;-1.29;95.55
52185;BME280;38160;52.876;18.778;2023-01-29T07:19:39;101511.58;;;-1.29;95.64
52185;BME280;38160;52.876;18.778;2023-01-29T07:22:18;101509.25;;;-1.29;95.78
52185;BME280;38160;52.876;18.778;2023-01-29T07:24:55;101518.73;;;-1.27;95.84
52185;BME280;38160;52.876;18.778;2023-01-29T07:27:32;101519.98;;;-1.27;95.52
52185;BME280;38160;52.876;18.778;2023-01-29T07:30:10;101512.73;;;-1.23;95.73
52185;BME280;38160;52.876;18.778;2023-01-29T07:32:47;101521.40;;;-1.19;95.71
52185;BME280;38160;52.876;18.778;2023-01-29T07:35:23;101513.46;;;-1.19;95.93
52185;BME280;38160;52.876;18.778;2023-01-29T07:37:59;101504.60;;;-1.19;95.99
52185;BME280;38160;52.876;18.778;2023-01-29T07:40:39;101494.73;;;-1.20;96.06
52185;BME280;38160;52.876;18.778;2023-01-29T07:43:40;101497.05;;;-1.12;95.94
52185;BME280;38160;52.876;18.778;2023-01-29T07:46:16;101491.74;;;-1.12;96.37
52185;BME280;38160;52.876;18.778;2023-01-29T07:48:52;101495.02;;;-1.07;96.07
52185;BME280;38160;52.876;18.778;2023-01-29T07:51:28;101491.05;;;-1.04;95.96
52185;BME280;38160;52.876;18.778;2023-01-29T07:54:08;101491.98;;;-1.01;95.92
52185;BME280;38160;52.876;18.778;2023-01-29T07:56:44;101498.91;;;-1.02;95.56
52185;BME280;38160;52.876;18.778;2023-01-29T07:59:20;101498.96;;;-1.04;95.74
52185;BME280;38160;52.876;18.778;2023-01-29T08:01:56;101496.67;;;-0.99;95.82
52185;BME280;38160;52.876;18.778;2023-01-29T08:04:32;101487.73;;;-0.97;95.96
52185;BME280;38160;52.876;18.778;2023-01-29T08:07:08;101492.14;;;-0.93;95.73
52185;BME280;38160;52.876;18.778;2023-01-29T08:09:45;101484.85;;;-0.92;95.74
52185;BME280;38160;52.876;18.778;2023-01-29T08:12:20;101490.27;;;-0.91;95.87
52185;BME280;38160;52.876;18.778;2023-01-29T08:14:56;101484.41;;;-0.90;95.93
52185;BME280;38160;52.876;18.778;2023-01-29T08:17:43;101486.36;;;-0.87;95.71
52185;BME280;38160;52.876;18.778;2023-01-29T08:20:21;101481.69;;;-0.88;96.03
52185;BME280;38160;52.876;18.778;2023-01-29T08:23:02;101487.16;;;-0.88;96.14
52185;BME280;38160;52.876;18.778;2023-01-29T08:25:40;101486.72;;;-0.90;96.10
52185;BME280;38160;52.876;18.778;2023-01-29T08:28:16;101493.33;;;-0.92;96.06
52185;BME280;38160;52.876;18.778;2023-01-29T08:31:15;101486.20;;;-0.94;96.13
52185;BME280;38160;52.876;18.778;2023-01-29T08:33:55;101489.27;;;-0.96;96.13
52185;BME280;38160;52.876;18.778;2023-01-29T08:36:32;101492.48;;;-0.93;96.19
52185;BME280;38160;52.876;18.778;2023-01-29T08:39:09;101481.21;;;-0.90;96.18
52185;BME280;38160;52.876;18.778;2023-01-29T08:41:45;101476.79;;;-0.86;96.28
52185;BME280;38160;52.876;18.778;2023-01-29T08:44:22;101478.48;;;-0.84;96.17
52185;BME280;38160;52.876;18.778;2023-01-29T08:46:58;101478.02;;;-0.82;96.20
52185;BME280;38160;52.876;18.778;2023-01-29T08:49:34;101477.55;;;-0.75;96.32
52185;BME280;38160;52.876;18.778;2023-01-29T08:52:10;101469.55;;;-0.70;96.11
52185;BME280;38160;52.876;18.778;2023-01-29T08:54:46;101463.46;;;-0.69;96.10
52185;BME280;38160;52.876;18.778;2023-01-29T08:57:22;101459.07;;;-0.66;96.25
52185;BME280;38160;52.876;18.778;2023-01-29T08:59:59;101458.55;;;-0.62;96.05
52185;BME280;38160;52.876;18.778;2023-01-29T09:02:35;101456.70;;;-0.56;96.36
52185;BME280;38160;52.876;18.778;2023-01-29T09:05:11;101458.27;;;-0.49;96.31
52185;BME280;38160;52.876;18.778;2023-01-29T09:07:47;101449.48;;;-0.42;96.27
52185;BME280;38160;52.876;18.778;2023-01-29T09:10:23;101451.25;;;-0.35;96.10
52185;BME280;38160;52.876;18.778;2023-01-29T09:13:03;101440.91;;;-0.26;96.28
52185;BME280;38160;52.876;18.778;2023-01-29T09:15:40;101442.38;;;-0.20;96.00
52185;BME280;38160;52.876;18.778;2023-01-29T09:18:16;101440.87;;;-0.17;96.08
52185;BME280;38160;52.876;18.778;2023-01-29T09:20:53;101443.58;;;-0.15;96.10
52185;BME280;38160;52.876;18.778;2023-01-29T09:23:30;101444.35;;;-0.13;96.04
52185;BME280;38160;52.876;18.778;2023-01-29T09:26:11;101438.23;;;-0.11;95.92
52185;BME280;38160;52.876;18.778;2023-01-29T09:28:51;101435.98;;;-0.12;96.04
52185;BME280;38160;52.876;18.778;2023-01-29T09:31:27;101438.23;;;-0.11;95.85
52185;BME280;38160;52.876;18.778;2023-01-29T09:34:03;101436.32;;;-0.12;95.86
52185;BME280;38160;52.876;18.778;2023-01-29T09:36:40;101438.52;;;-0.10;96.05
52185;BME280;38160;52.876;18.778;2023-01-29T09:39:18;101440.46;;;-0.10;96.12
52185;BME280;38160;52.876;18.778;2023-01-29T09:42:05;101441.86;;;-0.06;96.33
52185;BME280;38160;52.876;18.778;2023-01-29T09:44:54;101445.23;;;-0.02;96.19
52185;BME280;38160;52.876;18.778;2023-01-29T09:47:37;101446.80;;;-0.02;96.11
52185;BME280;38160;52.876;18.778;2023-01-29T09:52:56;101448.77;;;-0.03;96.22
52185;BME280;38160;52.876;18.778;2023-01-29T09:55:36;101447.54;;;0.01;96.27
52185;BME280;38160;52.876;18.778;2023-01-29T09:58:18;101443.61;;;0.02;96.04
52185;BME280;38160;52.876;18.778;2023-01-29T10:01:01;101436.69;;;-0.01;96.39
52185;BME280;38160;52.876;18.778;2023-01-29T10:04:07;101429.39;;;-0.04;96.34
52185;BME280;38160;52.876;18.778;2023-01-29T10:07:07;101422.80;;;-0.03;96.54
52185;BME280;38160;52.876;18.778;2023-01-29T10:10:10;101418.40;;;-0.03;96.57
52185;BME280;38160;52.876;18.778;2023-01-29T10:13:05;101415.16;;;-0.03;96.59
52185;BME280;38160;52.876;18.778;2023-01-29T10:15:48;101413.53;;;-0.06;96.57
52185;BME280;38160;52.876;18.778;2023-01-29T10:19:02;101412.35;;;-0.03;96.89
52185;BME280;38160;52.876;18.778;2023-01-29T10:22:03;101414.94;;;0.02;97.00
52185;BME280;38160;52.876;18.778;2023-01-29T10:24:50;101413.08;;;0.07;97.11
52185;BME280;38160;52.876;18.778;2023-01-29T10:27:32;101409.34;;;0.11;96.86
52185;BME280;38160;52.876;18.778;2023-01-29T10:30:26;101410.47;;;0.10;96.66
52185;BME280;38160;52.876;18.778;2023-01-29T10:33:05;101400.58;;;0.06;96.83
52185;BME280;38160;52.876;18.778;2023-01-29T10:35:45;101389.98;;;0.06;96.37
52185;BME280;38160;52.876;18.778;2023-01-29T10:38:33;101381.83;;;0.03;96.70
52185;BME280;38160;52.876;18.778;2023-01-29T10:41:34;101371.33;;;0.04;97.10
52185;BME280;38160;52.876;18.778;2023-01-29T10:44:32;101377.02;;;0.07;96.64
52185;BME280;38160;52.876;18.778;2023-01-29T10:47:26;101375.55;;;0.08;96.63
52185;BME280;38160;52.876;18.778;2023-01-29T10:50:15;101363.84;;;0.05;96.70
52185;BME280;38160;52.876;18.778;2023-01-29T10:53:06;101366.63;;;0.06;96.79
52185;BME280;38160;52.876;18.778;2023-01-29T10:55:57;101373.70;;;0.06;96.75
52185;BME280;38160;52.876;18.778;2023-01-29T10:58:40;101368.02;;;0.06;96.81
52185;BME280;38160;52.876;18.778;2023-01-29T11:01:18;101359.88;;;0.06;96.97
52185;BME280;38160;52.876;18.778;2023-01-29T11:03:58;101351.22;;;0.06;96.97
52185;BME280;38160;52.876;18.778;2023-01-29T11:06:37;101341.77;;;0.04;97.22
52185;BME280;38160;52.876;18.778;2023-01-29T11:09:29;101338.91;;;0.05;97.13
52185;BME280;38160;52.876;18.778;2023-01-29T11:12:12;101327.27;;;0.04;97.23
52185;BME280;38160;52.876;18.778;2023-01-29T11:14:52;101327.90;;;0.02;97.32
52185;BME280;38160;52.876;18.778;2023-01-29T11:17:30;101321.20;;;0.02;97.23
52185;BME280;38160;52.876;18.778;2023-01-29T11:20:26;101321.17;;;0.02;97.40
52185;BME280;38160;52.876;18.778;2023-01-29T11:23:03;101316.75;;;0.02;97.54
52185;BME280;38160;52.876;18.778;2023-01-29T11:25:39;101310.95;;;0.05;97.68
52185;BME280;38160;52.876;18.778;2023-01-29T11:28:41;101303.94;;;0.07;97.63
52185;BME280;38160;52.876;18.778;2023-01-29T11:31:21;101303.58;;;0.10;97.91
52185;BME280;38160;52.876;18.778;2023-01-29T11:34:04;101298.66;;;0.13;97.73
52185;BME280;38160;52.876;18.778;2023-01-29T11:36:40;101298.31;;;0.13;97.65
52185;BME280;38160;52.876;18.778;2023-01-29T11:39:23;101296.85;;;0.10;97.75
52185;BME280;38160;52.876;18.778;2023-01-29T11:42:00;101295.86;;;0.09;97.86
52185;BME280;38160;52.876;18.778;2023-01-29T11:44:42;101291.31;;;0.05;97.79
52185;BME280;38160;52.876;18.778;2023-01-29T11:47:20;101279.98;;;0.02;97.91
52185;BME280;38160;52.876;18.778;2023-01-29T11:50:01;101270.31;;;0.04;98.16
52185;BME280;38160;52.876;18.778;2023-01-29T11:52:39;101275.30;;;0.06;98.29
52185;BME280;38160;52.876;18.778;2023-01-29T11:55:19;101271.27;;;0.06;98.12
52185;BME280;38160;52.876;18.778;2023-01-29T11:58:01;101269.61;;;0.04;98.23
52185;BME280;38160;52.876;18.778;2023-01-29T12:00:40;101262.05;;;0.03;98.35
52185;BME280;38160;52.876;18.778;2023-01-29T12:03:23;101259.27;;;0.05;98.53
52185;BME280;38160;52.876;18.778;2023-01-29T12:06:07;101254.09;;;0.09;98.63
52185;BME280;38160;52.876;18.778;2023-01-29T12:09:14;101252.71;;;0.12;98.54
52185;BME280;38160;52.876;18.778;2023-01-29T12:11:53;101256.52;;;0.10;98.49
52185;BME280;38160;52.876;18.778;2023-01-29T12:14:32;101251.48;;;0.12;98.58
52185;BME280;38160;52.876;18.778;2023-01-29T12:17:14;101248.72;;;0.14;98.39
52185;BME280;38160;52.876;18.778;2023-01-29T12:19:56;101248.12;;;0.12;98.41
52185;BME280;38160;52.876;18.778;2023-01-29T12:22:41;101243.78;;;0.10;98.48
52185;BME280;38160;52.876;18.778;2023-01-29T12:25:23;101237.98;;;0.09;98.47
52185;BME280;38160;52.876;18.778;2023-01-29T12:28:11;101228.94;;;0.10;98.79
52185;BME280;38160;52.876;18.778;2023-01-29T12:30:58;101228.84;;;0.12;99.07
52185;BME280;38160;52.876;18.778;2023-01-29T12:33:45;101223.42;;;0.13;98.69
52185;BME280;38160;52.876;18.778;2023-01-29T12:36:30;101218.11;;;0.10;98.71
52185;BME280;38160;52.876;18.778;2023-01-29T12:39:10;101217.23;;;0.11;98.63
52185;BME280;38160;52.876;18.778;2023-01-29T12:41:52;101208.11;;;0.09;98.87
52185;BME280;38160;52.876;18.778;2023-01-29T12:44:34;101211.95;;;0.10;98.86
52185;BME280;38160;52.876;18.778;2023-01-29T12:47:20;101217.73;;;0.11;99.01
52185;BME280;38160;52.876;18.778;2023-01-29T12:50:01;101211.48;;;0.12;98.98
52185;BME280;38160;52.876;18.778;2023-01-29T12:52:41;101214.02;;;0.11;98.89
52185;BME280;38160;52.876;18.778;2023-01-29T12:55:21;101215.71;;;0.09;99.09
52185;BME280;38160;52.876;18.778;2023-01-29T12:58:00;101208.23;;;0.07;98.91
52185;BME280;38160;52.876;18.778;2023-01-29T13:00:39;101206.73;;;0.05;99.20
52185;BME280;38160;52.876;18.778;2023-01-29T13:03:23;101206.73;;;0.02;99.48
52185;BME280;38160;52.876;18.778;2023-01-29T13:06:07;101199.98;;;0.02;99.80
52185;BME280;38160;52.876;18.778;2023-01-29T13:08:47;101194.77;;;0.04;99.58
52185;BME280;38160;52.876;18.778;2023-01-29T13:11:30;101191.08;;;0.04;99.55
52185;BME280;38160;52.876;18.778;2023-01-29T13:14:15;101195.58;;;0.05;99.66
52185;BME280;38160;52.876;18.778;2023-01-29T13:16:54;101204.73;;;0.09;99.75
52185;BME280;38160;52.876;18.778;2023-01-29T13:19:35;101197.56;;;0.08;99.82
52185;BME280;38160;52.876;18.778;2023-01-29T13:22:19;101191.78;;;0.10;99.91
52185;BME280;38160;52.876;18.778;2023-01-29T13:24:57;101191.48;;;0.09;99.99
52185;BME280;38160;52.876;18.778;2023-01-29T13:27:35;101192.11;;;0.07;100.00
52185;BME280;38160;52.876;18.778;2023-01-29T13:30:25;101191.73;;;0.07;100.00
52185;BME280;38160;52.876;18.778;2023-01-29T13:33:04;101185.37;;;0.07;100.00
52185;BME280;38160;52.876;18.778;2023-01-29T13:35:45;101183.02;;;0.08;100.00
52185;BME280;38160;52.876;18.778;2023-01-29T13:38:26;101187.13;;;0.08;100.00
52185;BME280;38160;52.876;18.778;2023-01-29T13:41:05;101180.30;;;0.06;100.00
52185;BME280;38160;52.876;18.778;2023-01-29T13:43:43;101178.54;;;0.06;100.00
52185;BME280;38160;52.876;18.778;2023-01-29T13:46:23;101179.66;;;0.05;100.00
52185;BME280;38160;52.876;18.778;2023-01-29T13:49:00;101182.98;;;0.03;100.00
52185;BME280;38160;52.876;18.778;2023-01-29T13:51:38;101179.61;;;0.03;100.00
52185;BME280;38160;52.876;18.778;2023-01-29T13:54:19;101183.05;;;0.01;100.00
52185;BME280;38160;52.876;18.778;2023-01-29T13:57:17;101175.43;;;-0.05;100.00
52185;BME280;38160;52.876;18.778;2023-01-29T14:00:04;101176.88;;;-0.03;100.00
52185;BME280;38160;52.876;18.778;2023-01-29T14:02:41;101171.77;;;-0.03;100.00
52185;BME280;38160;52.876;18.778;2023-01-29T14:05:41;101174.09;;;-0.06;100.00
52185;BME280;38160;52.876;18.778;2023-01-29T14:08:40;101167.94;;;-0.07;100.00
52185;BME280;38160;52.876;18.778;2023-01-29T14:11:35;101173.21;;;-0.07;100.00
52185;BME280;38160;52.876;18.778;2023-01-29T14:17:18;101173.48;;;-0.08;100.00
52185;BME280;38160;52.876;18.778;2023-01-29T14:19:59;101175.73;;;-0.08;100.00
52185;BME280;38160;52.876;18.778;2023-01-29T14:22:37;101177.02;;;-0.08;100.00
52185;BME280;38160;52.876;18.778;2023-01-29T14:25:20;101175.30;;;-0.06;100.00
52185;BME280;38160;52.876;18.778;2023-01-29T14:28:00;101172.07;;;-0.05;100.00
52185;BME280;38160;52.876;18.778;2023-01-29T14:30:37;101168.92;;;-0.06;100.00